Main page
METAR-TAF:

METAR-TAF

Airports :

Base de Almagro

Almagro, Spain

latitude: 38-57-11N, longitude: 3-44-29W, elevation: 629 m

Current weather observation

The report was made 1 hour and 3 minutes ago, at 11:00 UTC
Wind 2 kt from variable directions
Temperature 11°C
Humidity 94%
Pressure 1016 hPa
Visibility: 9000 m
Scattered clouds at a height of 600 ft

METAR: LEAO 061100Z VRB02KT 9000 SCT006 11/10 Q1016

Time: 13:03 (12:03 UTC)

Forecast

The report was made 4 hours and 3 minutes ago, at 08:00 UTC
Forecast valid from 06 at 09 UTC to 07 at 09 UTC
Wind 4 kt from variable directions
Visibility 10 km or more
Broken clouds at a height of 2500 ft
Probability 30% :
Temporary
from 06 at 09 UTC to 06 at 20 UTC
Visibility: 2000 m
Broken clouds at a height of 300 ft
mist
Probability 40% :
Temporary
from 07 at 00 UTC to 07 at 09 UTC
Visibility: 0200 m
at a height of 200 ft
fog

TAF: LEAO 060800Z 0609/0709 VRB04KT 9999 BKN025 TX13/0615Z TN07/0707Z PROB30 TEMPO 0609/0620 2000 BR BKN003 PROB40 TEMPO 0700/0709 0200 FG VV002

Weather observations and forecasts of more than 4000 airports (METAR and TAF reports).

The available stations are represented by yellow and red dots on the map.

Hover mouse over dot to see the name of the station.

Then click to see weather observations and forecasts.

To change the map : click on the green buttons with a black cross to zoom in, on the green button with a dash to zoom out, or on the green arrows for adjacent maps.


METAR-TAF: